Midway, Canada
Current Conditions -  °F | °C
As of 2:00 AM on Tuesday 21 Oct 2014 (Local Time) from CYYF Reporting Station
Broken Clouds Broken Clouds  
Wind Chill: 55°   Ceiling: 6000
Heat Index: 55°   Visibility: 15mi
Dew Point: 46°   Wind: 18mph
Humidity: 72%   Direction: 190°S
Pressure: 29.76"   Gusts: NA
Location:  49.02°N, 118.78°W
Report Text: CYYF 210900Z 19016KT 15SM BKN060 BKN110 BKN210 13/08 A2976 RMK SC5AC1CI1 SLP079 DENSITY ALT 1300FT
Loading
Personal Weather Stations






























Interactive Weather Map
Tropical Storm Tracking
New forecast layout! Learn more

10-Day Weather Forecast

Advertisements
Track Severe Weather on mobile